createdAt,value
2019-06-26T00:00:47.181Z,998.00
2019-06-26T00:01:47.216Z,998.02
2019-06-26T00:02:47.116Z,998.00
2019-06-26T00:03:47.103Z,997.98
2019-06-26T00:04:47.102Z,997.95
2019-06-26T00:05:47.127Z,997.98
2019-06-26T00:06:47.081Z,997.98
2019-06-26T00:07:47.067Z,997.99
2019-06-26T00:08:47.063Z,998.03
2019-06-26T00:09:47.044Z,998.00
2019-06-26T00:10:47.043Z,998.06
2019-06-26T00:11:47.021Z,998.09
2019-06-26T00:12:47.030Z,998.05
2019-06-26T00:13:47.009Z,998.09
2019-06-26T00:14:46.982Z,998.12
2019-06-26T00:15:47.005Z,998.10
2019-06-26T00:16:46.960Z,998.11
2019-06-26T00:17:46.960Z,998.08
2019-06-26T00:18:46.936Z,998.13
2019-06-26T00:19:46.943Z,998.11
2019-06-26T00:20:46.951Z,998.15
2019-06-26T00:21:46.902Z,998.14
2019-06-26T00:22:46.906Z,998.16
2019-06-26T00:23:46.882Z,998.20
2019-06-26T00:24:46.901Z,998.21
2019-06-26T00:25:46.911Z,998.20
2019-06-26T00:26:46.853Z,998.27
2019-06-26T00:27:46.835Z,998.25
2019-06-26T00:28:46.831Z,998.24
2019-06-26T00:29:46.814Z,998.24
2019-06-26T00:30:46.831Z,998.24
2019-06-26T00:31:46.801Z,998.25
2019-06-26T00:32:46.789Z,998.24
2019-06-26T00:33:46.770Z,998.32
2019-06-26T00:34:46.770Z,998.35
2019-06-26T00:35:46.800Z,998.31
2019-06-26T00:36:46.739Z,998.38
2019-06-26T00:37:46.731Z,998.37
2019-06-26T00:38:46.711Z,998.28
2019-06-26T00:39:46.699Z,998.38
2019-06-26T00:40:46.732Z,998.37
2019-06-26T00:41:46.700Z,998.43
2019-06-26T00:42:46.673Z,998.38
2019-06-26T00:43:46.667Z,998.42
2019-06-26T00:44:46.666Z,998.42
2019-06-26T00:45:46.670Z,998.41
2019-06-26T00:46:46.640Z,998.43
2019-06-26T00:47:46.638Z,998.41
2019-06-26T00:48:46.627Z,998.41
2019-06-26T00:49:46.629Z,998.39
2019-06-26T00:50:46.622Z,998.39
2019-06-26T00:51:46.603Z,998.44
2019-06-26T00:52:46.582Z,998.44
2019-06-26T00:53:46.566Z,998.39
2019-06-26T00:54:46.576Z,998.38
2019-06-26T00:55:46.562Z,998.46
2019-06-26T00:56:46.535Z,998.45
2019-06-26T00:57:46.501Z,998.47
2019-06-26T00:58:46.511Z,998.53
2019-06-26T00:59:46.498Z,998.50
2019-06-26T01:00:46.510Z,998.53
2019-06-26T01:01:46.475Z,998.49
2019-06-26T01:02:46.461Z,998.48
2019-06-26T01:03:46.462Z,998.47
2019-06-26T01:04:46.442Z,998.46
2019-06-26T01:05:46.470Z,998.50
2019-06-26T01:06:46.419Z,998.55
2019-06-26T01:07:46.414Z,998.47
2019-06-26T01:08:46.394Z,998.49
2019-06-26T01:09:46.377Z,998.52
2019-06-26T01:10:46.403Z,998.49
2019-06-26T01:11:46.361Z,998.58
2019-06-26T01:12:46.351Z,998.57
2019-06-26T01:13:57.821Z,998.58
2019-06-26T01:14:47.352Z,998.60
2019-06-26T01:15:46.343Z,998.59
2019-06-26T01:16:46.342Z,998.60
2019-06-26T01:17:46.306Z,998.57
2019-06-26T01:18:46.305Z,998.58
2019-06-26T01:19:46.278Z,998.62
2019-06-26T01:20:46.263Z,998.57
2019-06-26T01:21:46.289Z,998.57
2019-06-26T01:22:46.253Z,998.56
2019-06-26T01:23:46.236Z,998.56
2019-06-26T01:24:46.216Z,998.58
2019-06-26T01:25:46.215Z,998.56
2019-06-26T01:26:46.223Z,998.57
2019-06-26T01:27:46.187Z,998.61
2019-06-26T01:28:46.183Z,998.57
2019-06-26T01:29:46.197Z,998.58
2019-06-26T01:30:46.155Z,998.58
2019-06-26T01:31:46.184Z,998.59
2019-06-26T01:32:46.141Z,998.57
2019-06-26T01:33:46.131Z,998.56
2019-06-26T01:34:46.123Z,998.56
2019-06-26T01:35:46.106Z,998.54
2019-06-26T01:36:46.111Z,998.63
2019-06-26T01:37:46.081Z,998.61
2019-06-26T01:38:46.081Z,998.61
2019-06-26T01:39:46.063Z,998.57
2019-06-26T01:40:46.055Z,998.56
2019-06-26T01:41:46.075Z,998.60
2019-06-26T01:42:46.020Z,998.58
2019-06-26T01:43:46.013Z,998.56
2019-06-26T01:44:46.015Z,998.55
2019-06-26T01:45:45.995Z,998.58
2019-06-26T01:46:46.009Z,998.56
2019-06-26T01:47:45.985Z,998.60
2019-06-26T01:48:45.975Z,998.57
2019-06-26T01:49:45.959Z,998.56
2019-06-26T01:50:45.950Z,998.54
2019-06-26T01:51:45.966Z,998.58
2019-06-26T01:52:45.916Z,998.60
2019-06-26T01:53:45.924Z,998.59
2019-06-26T01:54:45.901Z,998.61
2019-06-26T01:55:45.903Z,998.59
2019-06-26T01:56:45.930Z,998.65
2019-06-26T01:57:45.874Z,998.64
2019-06-26T01:58:45.844Z,998.67
2019-06-26T01:59:45.844Z,998.66
2019-06-26T02:00:45.896Z,998.63
2019-06-26T02:01:45.858Z,998.63
2019-06-26T02:02:45.824Z,998.65
2019-06-26T02:03:45.821Z,998.65
2019-06-26T02:04:45.797Z,998.66
2019-06-26T02:05:45.796Z,998.68
2019-06-26T02:06:45.790Z,998.65
2019-06-26T02:07:45.763Z,998.68
2019-06-26T02:08:45.766Z,998.64
2019-06-26T02:09:45.773Z,998.59
2019-06-26T02:10:45.731Z,998.63
2019-06-26T02:11:45.771Z,998.61
2019-06-26T02:12:45.732Z,998.62
2019-06-26T02:13:45.702Z,998.64
2019-06-26T02:14:45.714Z,998.66
2019-06-26T02:15:45.672Z,998.68
2019-06-26T02:16:45.679Z,998.67
2019-06-26T02:17:45.663Z,998.66
2019-06-26T02:18:45.640Z,998.68
2019-06-26T02:19:45.620Z,998.71
2019-06-26T02:20:45.623Z,998.73
2019-06-26T02:21:45.628Z,998.72
2019-06-26T02:22:45.614Z,998.74
2019-06-26T02:23:45.598Z,998.71
2019-06-26T02:24:45.589Z,998.75
2019-06-26T02:25:45.584Z,998.76
2019-06-26T02:26:45.589Z,998.76
2019-06-26T02:27:45.546Z,998.76
2019-06-26T02:28:45.548Z,998.78
2019-06-26T02:29:45.532Z,998.79
2019-06-26T02:30:45.518Z,998.74
2019-06-26T02:31:45.550Z,998.75
2019-06-26T02:32:45.492Z,998.80
2019-06-26T02:33:45.499Z,998.78
2019-06-26T02:34:45.479Z,998.77
2019-06-26T02:35:45.461Z,998.80
2019-06-26T02:36:45.508Z,998.79
2019-06-26T02:37:45.454Z,998.80
2019-06-26T02:38:45.442Z,998.81
2019-06-26T02:39:45.433Z,998.83
2019-06-26T02:40:45.425Z,998.75
2019-06-26T02:41:45.437Z,998.78
2019-06-26T02:42:45.394Z,998.79
2019-06-26T02:43:45.391Z,998.82
2019-06-26T02:44:53.293Z,998.81
2019-06-26T02:45:46.371Z,998.78
2019-06-26T02:46:45.385Z,998.78
2019-06-26T02:47:45.332Z,998.79
2019-06-26T02:48:45.342Z,998.77
2019-06-26T02:49:45.321Z,998.83
2019-06-26T02:50:45.318Z,998.84
2019-06-26T02:51:45.314Z,998.91
2019-06-26T02:52:45.283Z,998.88
2019-06-26T02:53:45.280Z,998.94
2019-06-26T02:54:45.325Z,998.94
2019-06-26T02:55:45.251Z,998.92
2019-06-26T02:56:45.280Z,998.93
2019-06-26T02:57:45.227Z,998.93
2019-06-26T02:58:45.214Z,998.91
2019-06-26T02:59:45.213Z,998.90
2019-06-26T03:00:45.210Z,999.00
2019-06-26T03:01:45.200Z,998.90
2019-06-26T03:02:45.187Z,998.93
2019-06-26T03:03:45.172Z,998.95
2019-06-26T03:04:45.178Z,998.90
2019-06-26T03:05:45.185Z,998.99
2019-06-26T03:06:45.148Z,998.94
2019-06-26T03:07:45.133Z,998.98
2019-06-26T03:08:45.124Z,998.96
2019-06-26T03:09:45.108Z,998.93
2019-06-26T03:10:45.101Z,999.00
2019-06-26T03:11:45.112Z,998.99
2019-06-26T03:12:45.089Z,999.05
2019-06-26T03:13:45.073Z,999.04
2019-06-26T03:14:45.066Z,999.06
2019-06-26T03:15:45.052Z,999.05
2019-06-26T03:16:45.060Z,999.05
2019-06-26T03:17:54.837Z,999.07
2019-06-26T03:18:46.041Z,999.08
2019-06-26T03:19:45.001Z,999.11
2019-06-26T03:20:45.003Z,999.14
2019-06-26T03:21:45.011Z,999.17
2019-06-26T03:22:44.966Z,999.18
2019-06-26T03:23:44.951Z,999.18
2019-06-26T03:24:44.959Z,999.16
2019-06-26T03:25:44.941Z,999.22
2019-06-26T03:26:44.955Z,999.28
2019-06-26T03:27:44.964Z,999.24
2019-06-26T03:28:44.921Z,999.25
2019-06-26T03:29:44.891Z,999.27
2019-06-26T03:30:44.904Z,999.31
2019-06-26T03:31:44.893Z,999.29
2019-06-26T03:32:44.908Z,999.27
2019-06-26T03:33:44.864Z,999.26
2019-06-26T03:34:44.852Z,999.37
2019-06-26T03:35:44.846Z,999.34
2019-06-26T03:36:44.808Z,999.32
2019-06-26T03:37:44.835Z,999.36
2019-06-26T03:38:44.796Z,999.35
2019-06-26T03:39:44.788Z,999.38
2019-06-26T03:40:44.770Z,999.32
2019-06-26T03:41:44.782Z,999.31
2019-06-26T03:42:44.785Z,999.35
2019-06-26T03:43:44.742Z,999.37
2019-06-26T03:44:44.752Z,999.38
2019-06-26T03:45:44.731Z,999.33
2019-06-26T03:46:44.741Z,999.36
2019-06-26T03:47:44.750Z,999.36
2019-06-26T03:48:44.701Z,999.38
2019-06-26T03:49:44.713Z,999.45
2019-06-26T03:50:44.679Z,999.43
2019-06-26T03:51:44.683Z,999.40
2019-06-26T03:52:44.688Z,999.46
2019-06-26T03:53:44.649Z,999.43
2019-06-26T03:54:44.642Z,999.42
2019-06-26T03:55:44.627Z,999.46
2019-06-26T03:56:44.619Z,999.46
2019-06-26T03:57:44.641Z,999.45
2019-06-26T03:58:44.613Z,999.44
2019-06-26T03:59:44.579Z,999.48
2019-06-26T04:00:44.576Z,999.43
2019-06-26T04:01:44.559Z,999.46
2019-06-26T04:02:44.573Z,999.45
2019-06-26T04:03:44.556Z,999.40
2019-06-26T04:04:44.547Z,999.40
2019-06-26T04:05:44.525Z,999.38
2019-06-26T04:06:44.526Z,999.39
2019-06-26T04:07:44.534Z,999.45
2019-06-26T04:08:44.488Z,999.38
2019-06-26T04:09:44.483Z,999.46
2019-06-26T04:10:44.454Z,999.46
2019-06-26T04:11:44.459Z,999.47
2019-06-26T04:12:44.478Z,999.48
2019-06-26T04:13:44.428Z,999.41
2019-06-26T04:14:44.426Z,999.47
2019-06-26T04:15:44.435Z,999.41
2019-06-26T04:16:44.400Z,999.42
2019-06-26T04:17:44.405Z,999.43
2019-06-26T04:18:44.386Z,999.44
2019-06-26T04:19:44.380Z,999.43
2019-06-26T04:20:44.364Z,999.45
2019-06-26T04:21:44.359Z,999.45
2019-06-26T04:22:47.433Z,999.46
2019-06-26T04:23:44.324Z,999.48
2019-06-26T04:24:44.326Z,999.49
2019-06-26T04:25:44.345Z,999.47
2019-06-26T04:26:44.298Z,999.50
2019-06-26T04:27:44.326Z,999.48
2019-06-26T04:28:44.282Z,999.55
2019-06-26T04:29:44.259Z,999.56
2019-06-26T04:30:44.258Z,999.56
2019-06-26T04:31:44.244Z,999.57
2019-06-26T04:32:44.254Z,999.55
2019-06-26T04:33:44.211Z,999.55
2019-06-26T04:34:44.199Z,999.62
2019-06-26T04:35:44.207Z,999.63
2019-06-26T04:36:44.184Z,999.62
2019-06-26T04:37:44.201Z,999.63
2019-06-26T04:38:44.155Z,999.61
2019-06-26T04:39:44.159Z,999.59
2019-06-26T04:40:44.155Z,999.65
2019-06-26T04:41:44.161Z,999.66
2019-06-26T04:42:44.125Z,999.61
2019-06-26T04:43:44.096Z,999.67
2019-06-26T04:44:44.128Z,999.67
2019-06-26T04:45:57.286Z,999.63
2019-06-26T04:46:45.080Z,999.63
2019-06-26T04:47:44.101Z,999.71
2019-06-26T04:48:44.055Z,999.72
2019-06-26T04:49:44.061Z,999.73
2019-06-26T04:50:44.035Z,999.74
2019-06-26T04:51:44.021Z,999.78
2019-06-26T04:52:44.059Z,999.73
2019-06-26T04:53:44.006Z,999.83
2019-06-26T04:54:43.991Z,999.78
2019-06-26T04:55:43.978Z,999.82
2019-06-26T04:56:43.988Z,999.79
2019-06-26T04:57:43.994Z,999.76
2019-06-26T04:58:43.959Z,999.73
2019-06-26T04:59:43.942Z,999.77
2019-06-26T05:00:43.918Z,999.76
2019-06-26T05:01:43.926Z,999.75
2019-06-26T05:02:43.926Z,999.75
2019-06-26T05:03:43.916Z,999.78
2019-06-26T05:04:43.882Z,999.79
2019-06-26T05:05:44.600Z,999.84
2019-06-26T05:06:43.855Z,999.84
2019-06-26T05:07:43.994Z,999.81
2019-06-26T05:08:43.849Z,999.80
2019-06-26T05:09:43.836Z,999.87
2019-06-26T05:10:43.816Z,999.78
2019-06-26T05:11:43.809Z,999.86
2019-06-26T05:12:43.824Z,999.83
2019-06-26T05:13:43.784Z,999.86
2019-06-26T05:14:43.769Z,999.84
2019-06-26T05:15:43.752Z,999.92
2019-06-26T05:16:43.749Z,999.91
2019-06-26T05:17:43.782Z,999.85
2019-06-26T05:18:43.729Z,999.92
2019-06-26T05:19:43.736Z,999.92
2019-06-26T05:20:43.697Z,999.93
2019-06-26T05:21:43.707Z,999.95
2019-06-26T05:22:43.718Z,999.94
2019-06-26T05:23:43.713Z,1000.00
2019-06-26T05:24:46.435Z,999.92
2019-06-26T05:25:43.662Z,999.95
2019-06-26T05:26:43.644Z,999.96
2019-06-26T05:27:43.658Z,999.98
2019-06-26T05:28:43.615Z,999.97
2019-06-26T05:29:43.610Z,1000.01
2019-06-26T05:30:43.598Z,999.99
2019-06-26T05:31:43.599Z,1000.02
2019-06-26T05:32:43.605Z,1000.01
2019-06-26T05:33:43.564Z,1000.06
2019-06-26T05:34:43.565Z,1000.10
2019-06-26T05:35:43.570Z,1000.08
2019-06-26T05:36:43.527Z,1000.02
2019-06-26T05:37:43.548Z,1000.08
2019-06-26T05:38:43.520Z,1000.09
2019-06-26T05:39:43.487Z,1000.17
2019-06-26T05:40:43.476Z,1000.14
2019-06-26T05:41:43.468Z,1000.17
2019-06-26T05:42:43.501Z,1000.21
2019-06-26T05:43:43.468Z,1000.15
2019-06-26T05:44:43.463Z,1000.20
2019-06-26T05:45:43.432Z,1000.24
2019-06-26T05:46:43.435Z,1000.21
2019-06-26T05:47:43.445Z,1000.21
2019-06-26T05:48:43.423Z,1000.22
2019-06-26T05:49:43.412Z,1000.26
2019-06-26T05:50:43.424Z,1000.28
2019-06-26T05:51:43.389Z,1000.27
2019-06-26T05:52:43.417Z,1000.27
2019-06-26T05:53:43.354Z,1000.32
2019-06-26T05:54:43.344Z,1000.30
2019-06-26T05:55:43.324Z,1000.28
2019-06-26T05:56:45.434Z,1000.35
2019-06-26T05:57:43.352Z,1000.27
2019-06-26T05:58:43.298Z,1000.27
2019-06-26T05:59:43.300Z,1000.28
2019-06-26T06:00:43.275Z,1000.32
2019-06-26T06:01:43.302Z,1000.33
2019-06-26T06:02:43.249Z,1000.43
2019-06-26T06:03:43.259Z,1000.49
2019-06-26T06:04:43.243Z,1000.43
2019-06-26T06:05:43.263Z,1000.50
2019-06-26T06:06:43.241Z,1000.53
2019-06-26T06:07:43.206Z,1000.55
2019-06-26T06:08:43.217Z,1000.60
2019-06-26T06:09:43.187Z,1000.57
2019-06-26T06:10:43.417Z,1000.56
2019-06-26T06:11:43.196Z,1000.61
2019-06-26T06:12:43.164Z,1000.61
2019-06-26T06:13:43.148Z,1000.63
2019-06-26T06:14:43.142Z,1000.59
2019-06-26T06:15:43.119Z,1000.57
2019-06-26T06:16:47.228Z,1000.57
2019-06-26T06:17:43.133Z,1000.62
2019-06-26T06:18:43.122Z,1000.63
2019-06-26T06:19:43.118Z,1000.69
2019-06-26T06:20:43.073Z,1000.63
2019-06-26T06:21:43.064Z,1000.65
2019-06-26T06:22:43.079Z,1000.62
2019-06-26T06:23:43.072Z,1000.67
2019-06-26T06:24:43.034Z,1000.65
2019-06-26T06:25:43.033Z,1000.64
2019-06-26T06:26:43.047Z,1000.67
2019-06-26T06:27:43.053Z,1000.62
2019-06-26T06:28:43.007Z,1000.71
2019-06-26T06:29:43.004Z,1000.65
2019-06-26T06:30:42.993Z,1000.73
2019-06-26T06:31:43.007Z,1000.68
2019-06-26T06:32:43.022Z,1000.75
2019-06-26T06:33:43.071Z,1000.77
2019-06-26T06:34:42.953Z,1000.72
2019-06-26T06:35:42.949Z,1000.80
2019-06-26T06:36:42.930Z,1000.77
2019-06-26T06:37:42.949Z,1000.82
2019-06-26T06:38:42.899Z,1000.85
2019-06-26T06:39:42.895Z,1000.92
2019-06-26T06:40:42.904Z,1000.88
2019-06-26T06:41:43.565Z,1000.86
2019-06-26T06:42:42.883Z,1000.87
2019-06-26T06:43:42.877Z,1000.87
2019-06-26T06:44:42.838Z,1000.91
2019-06-26T06:45:42.835Z,1000.92
2019-06-26T06:46:42.842Z,1000.86
2019-06-26T06:47:42.845Z,1000.95
2019-06-26T06:48:42.808Z,1001.02
2019-06-26T06:49:42.817Z,1000.99
2019-06-26T06:50:42.812Z,1001.02
2019-06-26T06:51:42.804Z,1001.02
2019-06-26T06:52:42.824Z,1000.98
2019-06-26T06:53:42.785Z,1000.99
2019-06-26T06:54:42.784Z,1001.10
2019-06-26T06:55:42.746Z,1001.06
2019-06-26T06:56:42.747Z,1001.14
2019-06-26T06:57:42.774Z,1001.08
2019-06-26T06:58:42.714Z,1001.12
2019-06-26T06:59:42.698Z,1001.15
2019-06-26T07:00:42.716Z,1001.18
2019-06-26T07:01:42.684Z,1001.21
2019-06-26T07:02:42.719Z,1001.17
2019-06-26T07:03:42.699Z,1001.25
2019-06-26T07:04:42.679Z,1001.22
2019-06-26T07:05:42.710Z,1001.31
2019-06-26T07:06:42.642Z,1001.30
2019-06-26T07:07:42.680Z,1001.34
2019-06-26T07:08:42.674Z,1001.34
2019-06-26T07:09:42.648Z,1001.35
2019-06-26T07:10:42.640Z,1001.35
2019-06-26T07:11:42.614Z,1001.31
2019-06-26T07:12:42.648Z,1001.31
2019-06-26T07:13:42.597Z,1001.36
2019-06-26T07:14:42.607Z,1001.35
2019-06-26T07:15:42.675Z,1001.36
2019-06-26T07:16:42.566Z,1001.34
2019-06-26T07:17:42.586Z,1001.36
2019-06-26T07:18:42.563Z,1001.34
2019-06-26T07:19:42.555Z,1001.43
2019-06-26T07:20:44.739Z,1001.33
2019-06-26T07:21:42.525Z,1001.34
2019-06-26T07:22:42.553Z,1001.37
2019-06-26T07:23:42.530Z,1001.38
2019-06-26T07:24:42.509Z,1001.31
2019-06-26T07:25:42.509Z,1001.35
2019-06-26T07:26:42.484Z,1001.26
2019-06-26T07:27:42.531Z,1001.31
2019-06-26T07:28:42.486Z,1001.40
2019-06-26T07:29:42.473Z,1001.43
2019-06-26T07:30:42.454Z,1001.41
2019-06-26T07:31:42.442Z,1001.48
2019-06-26T07:32:42.485Z,1001.39
2019-06-26T07:33:42.438Z,1001.46
2019-06-26T07:34:42.421Z,1001.38
2019-06-26T07:35:42.415Z,1001.44
2019-06-26T07:36:42.401Z,1001.49
2019-06-26T07:37:42.444Z,1001.41
2019-06-26T07:38:42.390Z,1001.51
2019-06-26T07:39:42.365Z,1001.61
2019-06-26T07:40:42.411Z,1001.53
2019-06-26T07:41:42.365Z,1001.57
2019-06-26T07:42:42.398Z,1001.52
2019-06-26T07:43:42.356Z,1001.60
2019-06-26T07:44:42.329Z,1001.60
2019-06-26T07:45:42.341Z,1001.61
2019-06-26T07:46:42.324Z,1001.58
2019-06-26T07:47:44.206Z,1001.57
2019-06-26T07:48:42.300Z,1001.59
2019-06-26T07:49:42.291Z,1001.56
2019-06-26T07:50:42.282Z,1001.60
2019-06-26T07:51:42.287Z,1001.58
2019-06-26T07:52:42.508Z,1001.62
2019-06-26T07:53:42.301Z,1001.61
2019-06-26T07:54:42.278Z,1001.60
2019-06-26T07:55:42.309Z,1001.55
2019-06-26T07:56:42.217Z,1001.56
2019-06-26T07:57:42.273Z,1001.58
2019-06-26T07:58:42.233Z,1001.62
2019-06-26T07:59:42.237Z,1001.62
2019-06-26T08:00:42.203Z,1001.55
2019-06-26T08:01:42.202Z,1001.62
2019-06-26T08:02:42.212Z,1001.58
2019-06-26T08:03:42.184Z,1001.64
2019-06-26T08:04:42.174Z,1001.61
2019-06-26T08:05:43.259Z,1001.54
2019-06-26T08:06:42.148Z,1001.56
2019-06-26T08:07:42.190Z,1001.52
2019-06-26T08:08:42.154Z,1001.56
2019-06-26T08:09:42.131Z,1001.55
2019-06-26T08:10:42.110Z,1001.59
2019-06-26T08:11:42.116Z,1001.58
2019-06-26T08:12:42.106Z,1001.61
2019-06-26T08:13:42.104Z,1001.63
2019-06-26T08:14:42.084Z,1001.63
2019-06-26T08:15:42.096Z,1001.63
2019-06-26T08:16:42.077Z,1001.60
2019-06-26T08:17:55.932Z,1001.52
2019-06-26T08:18:43.056Z,1001.56
2019-06-26T08:19:42.039Z,1001.51
2019-06-26T08:20:55.333Z,1001.55
2019-06-26T08:21:46.494Z,1001.53
2019-06-26T08:22:42.033Z,1001.49
2019-06-26T08:23:42.034Z,1001.50
2019-06-26T08:24:42.002Z,1001.54
2019-06-26T08:25:41.997Z,1001.55
2019-06-26T08:26:41.973Z,1001.57
2019-06-26T08:27:41.989Z,1001.51
2019-06-26T08:28:42.013Z,1001.50
2019-06-26T08:29:41.986Z,1001.56
2019-06-26T08:30:41.951Z,1001.52
2019-06-26T08:31:41.945Z,1001.55
2019-06-26T08:32:41.926Z,1001.51
2019-06-26T08:33:41.979Z,1001.52
2019-06-26T08:34:41.922Z,1001.55
2019-06-26T08:35:41.930Z,1001.58
2019-06-26T08:36:41.895Z,1001.58
2019-06-26T08:37:41.899Z,1001.55
2019-06-26T08:38:41.919Z,1001.55
2019-06-26T08:39:41.884Z,1001.58
2019-06-26T08:40:41.858Z,1001.56
2019-06-26T08:41:41.867Z,1001.58
2019-06-26T08:42:41.837Z,1001.55
2019-06-26T08:43:41.887Z,1001.55
2019-06-26T08:44:41.839Z,1001.57
2019-06-26T08:45:41.820Z,1001.60
2019-06-26T08:46:41.816Z,1001.68
2019-06-26T08:47:41.821Z,1001.61
2019-06-26T08:48:41.829Z,1001.64
2019-06-26T08:49:41.798Z,1001.70
2019-06-26T08:50:41.803Z,1001.67
2019-06-26T08:51:41.771Z,1001.68
2019-06-26T08:52:41.795Z,1001.63
2019-06-26T08:53:41.807Z,1001.69
2019-06-26T08:54:41.780Z,1001.70
2019-06-26T08:55:41.752Z,1001.66
2019-06-26T08:56:41.748Z,1001.66
2019-06-26T08:57:41.736Z,1001.67
2019-06-26T08:58:41.727Z,1001.64
2019-06-26T08:59:41.736Z,1001.66
2019-06-26T09:00:41.763Z,1001.65
2019-06-26T09:01:41.695Z,1001.70
2019-06-26T09:02:41.703Z,1001.73
2019-06-26T09:03:42.191Z,1001.67
2019-06-26T09:04:41.697Z,1001.72
2019-06-26T09:05:48.157Z,1001.72
2019-06-26T09:06:42.677Z,1001.72
2019-06-26T09:07:41.647Z,1001.76
2019-06-26T09:08:41.657Z,1001.67
2019-06-26T09:09:41.670Z,1001.71
2019-06-26T09:10:44.833Z,1001.70
2019-06-26T09:11:41.614Z,1001.74
2019-06-26T09:12:41.618Z,1001.71
2019-06-26T09:13:41.622Z,1001.73
2019-06-26T09:14:41.604Z,1001.70
2019-06-26T09:15:41.608Z,1001.67
2019-06-26T09:16:41.577Z,1001.73
2019-06-26T09:17:41.577Z,1001.73
2019-06-26T09:18:41.571Z,1001.75
2019-06-26T09:19:41.599Z,1001.67
2019-06-26T09:20:41.541Z,1001.66
2019-06-26T09:21:41.529Z,1001.62
2019-06-26T09:22:41.538Z,1001.70
2019-06-26T09:23:41.561Z,1001.69
2019-06-26T09:24:41.502Z,1001.63
2019-06-26T09:25:41.534Z,1001.57
2019-06-26T09:26:41.502Z,1001.58
2019-06-26T09:27:41.481Z,1001.63
2019-06-26T09:28:41.524Z,1001.70
2019-06-26T09:29:41.473Z,1001.69
2019-06-26T09:30:41.467Z,1001.69
2019-06-26T09:31:41.471Z,1001.62
2019-06-26T09:32:41.448Z,1001.69
2019-06-26T09:33:41.453Z,1001.62
2019-06-26T09:34:41.437Z,1001.58
2019-06-26T09:35:41.419Z,1001.61
2019-06-26T09:36:41.407Z,1001.59
2019-06-26T09:37:41.435Z,1001.57
2019-06-26T09:38:41.414Z,1001.53
2019-06-26T09:39:41.383Z,1001.52
2019-06-26T09:40:41.395Z,1001.52
2019-06-26T09:41:41.387Z,1001.52
2019-06-26T09:42:41.445Z,1001.57
2019-06-26T09:43:41.385Z,1001.51
2019-06-26T09:44:41.391Z,1001.56
2019-06-26T09:45:41.339Z,1001.56
2019-06-26T09:46:41.344Z,1001.59
2019-06-26T09:47:41.310Z,1001.57
2019-06-26T09:48:52.180Z,1001.57
2019-06-26T09:49:42.292Z,1001.60
2019-06-26T09:50:41.294Z,1001.61
2019-06-26T09:51:41.312Z,1001.59
2019-06-26T09:52:41.277Z,1001.58
2019-06-26T09:53:47.050Z,1001.54
2019-06-26T09:54:42.259Z,1001.58
2019-06-26T09:55:41.241Z,1001.56
2019-06-26T09:56:41.266Z,1001.54
2019-06-26T09:57:41.267Z,1001.45
2019-06-26T09:58:41.281Z,1001.51
2019-06-26T09:59:41.233Z,1001.53
2019-06-26T10:00:41.229Z,1001.52
2019-06-26T10:01:41.242Z,1001.48
2019-06-26T10:02:41.214Z,1001.45
2019-06-26T10:03:45.025Z,1001.47
2019-06-26T10:04:41.181Z,1001.50
2019-06-26T10:05:41.161Z,1001.48
2019-06-26T10:06:41.161Z,1001.48
2019-06-26T10:07:41.170Z,1001.42
2019-06-26T10:08:41.144Z,1001.43
2019-06-26T10:09:41.154Z,1001.48
2019-06-26T10:10:41.145Z,1001.45
2019-06-26T10:11:41.106Z,1001.51
2019-06-26T10:12:41.142Z,1001.57
2019-06-26T10:13:41.101Z,1001.59
2019-06-26T10:14:47.846Z,1001.58
2019-06-26T10:15:42.086Z,1001.55
2019-06-26T10:16:41.080Z,1001.62
2019-06-26T10:17:41.114Z,1001.55
2019-06-26T10:18:41.050Z,1001.58
2019-06-26T10:19:41.052Z,1001.53
2019-06-26T10:20:41.031Z,1001.52
2019-06-26T10:21:41.033Z,1001.54
2019-06-26T10:22:41.054Z,1001.48
2019-06-26T10:23:41.016Z,1001.51
2019-06-26T10:24:41.022Z,1001.50
2019-06-26T10:25:40.996Z,1001.47
2019-06-26T10:26:41.001Z,1001.53
2019-06-26T10:27:41.031Z,1001.43
2019-06-26T10:28:40.996Z,1001.55
2019-06-26T10:29:40.956Z,1001.50
2019-06-26T10:30:40.950Z,1001.56
2019-06-26T10:31:40.952Z,1001.54
2019-06-26T10:32:40.975Z,1001.60
2019-06-26T10:33:40.932Z,1001.54
2019-06-26T10:34:40.919Z,1001.53
2019-06-26T10:35:40.903Z,1001.57
2019-06-26T10:36:40.911Z,1001.55
2019-06-26T10:37:40.913Z,1001.51
2019-06-26T10:38:40.902Z,1001.51
2019-06-26T10:39:40.867Z,1001.54
2019-06-26T10:40:40.864Z,1001.53
2019-06-26T10:41:40.858Z,1001.53
2019-06-26T10:42:40.893Z,1001.58
2019-06-26T10:43:40.841Z,1001.56
2019-06-26T10:44:40.873Z,1001.55
2019-06-26T10:45:40.838Z,1001.52
2019-06-26T10:46:40.828Z,1001.56
2019-06-26T10:47:40.808Z,1001.52
2019-06-26T10:48:40.788Z,1001.51
2019-06-26T10:49:40.813Z,1001.47
2019-06-26T10:50:48.562Z,1001.50
2019-06-26T10:51:41.769Z,1001.60
2019-06-26T10:52:40.805Z,1001.59
2019-06-26T10:53:40.759Z,1001.57
2019-06-26T10:54:44.141Z,1001.56
2019-06-26T10:55:40.742Z,1001.53
2019-06-26T10:56:40.730Z,1001.54
2019-06-26T10:57:40.721Z,1001.54
2019-06-26T10:58:40.709Z,1001.53
2019-06-26T10:59:40.693Z,1001.55
2019-06-26T11:00:40.728Z,1001.54
2019-06-26T11:01:40.695Z,1001.54
2019-06-26T11:02:40.669Z,1001.52
2019-06-26T11:03:40.648Z,1001.54
2019-06-26T11:04:40.664Z,1001.51
2019-06-26T11:05:40.638Z,1001.51
2019-06-26T11:06:40.647Z,1001.54
2019-06-26T11:07:40.619Z,1001.52
2019-06-26T11:08:40.610Z,1001.54
2019-06-26T11:09:40.651Z,1001.50
2019-06-26T11:10:40.590Z,1001.46
2019-06-26T11:11:40.603Z,1001.45
2019-06-26T11:12:40.599Z,1001.53
2019-06-26T11:13:40.582Z,1001.46
2019-06-26T11:14:40.589Z,1001.44
2019-06-26T11:15:40.541Z,1001.40
2019-06-26T11:16:40.531Z,1001.45
2019-06-26T11:17:40.535Z,1001.46
2019-06-26T11:18:40.529Z,1001.43
2019-06-26T11:19:44.386Z,1001.44
2019-06-26T11:20:40.534Z,1001.41
2019-06-26T11:21:40.491Z,1001.42
2019-06-26T11:22:40.492Z,1001.40
2019-06-26T11:23:40.481Z,1001.34
2019-06-26T11:24:40.523Z,1001.42
2019-06-26T11:25:44.165Z,1001.31
2019-06-26T11:26:40.493Z,1001.42
2019-06-26T11:27:40.437Z,1001.34
2019-06-26T11:28:40.443Z,1001.34
2019-06-26T11:29:40.666Z,1001.41
2019-06-26T11:30:40.436Z,1001.41
2019-06-26T11:31:40.435Z,1001.39
2019-06-26T11:32:40.412Z,1001.43
2019-06-26T11:33:40.399Z,1001.43
2019-06-26T11:34:40.405Z,1001.45
2019-06-26T11:35:40.371Z,1001.45
2019-06-26T11:36:40.356Z,1001.44
2019-06-26T11:37:40.367Z,1001.41
2019-06-26T11:38:40.341Z,1001.39
2019-06-26T11:39:40.367Z,1001.39
2019-06-26T11:40:40.329Z,1001.40
2019-06-26T11:41:40.330Z,1001.44
2019-06-26T11:42:40.314Z,1001.38
2019-06-26T11:43:40.292Z,1001.44
2019-06-26T11:44:40.343Z,1001.41
2019-06-26T11:45:40.288Z,1001.34
2019-06-26T11:46:40.274Z,1001.34
2019-06-26T11:47:40.272Z,1001.29
2019-06-26T11:48:40.296Z,1001.29
2019-06-26T11:49:40.271Z,1001.34
2019-06-26T11:50:40.231Z,1001.31
2019-06-26T11:51:40.220Z,1001.23
2019-06-26T11:52:40.230Z,1001.27
2019-06-26T11:53:40.217Z,1001.26
2019-06-26T11:54:40.240Z,1001.31
2019-06-26T11:55:40.193Z,1001.30
2019-06-26T11:56:40.186Z,1001.31
2019-06-26T11:57:40.170Z,1001.21
2019-06-26T11:58:40.174Z,1001.22
2019-06-26T11:59:40.187Z,1001.23
2019-06-26T12:00:41.678Z,1001.20
2019-06-26T12:01:40.148Z,1001.21
2019-06-26T12:02:40.147Z,1001.12
2019-06-26T12:03:40.113Z,1001.29
2019-06-26T12:04:40.158Z,1001.21
2019-06-26T12:05:40.174Z,1001.22
2019-06-26T12:06:40.109Z,1001.16
2019-06-26T12:07:40.063Z,1001.18
2019-06-26T12:08:40.063Z,1001.17
2019-06-26T12:09:40.122Z,1001.15
2019-06-26T12:10:40.056Z,1001.12
2019-06-26T12:11:40.052Z,1001.18
2019-06-26T12:12:40.032Z,1001.09
2019-06-26T12:13:40.023Z,1001.04
2019-06-26T12:14:40.059Z,1001.10
2019-06-26T12:15:40.004Z,1001.03